Time;durP1;ratioP1;P1;durP2;ratioP2;P2;SDS_P1;SDS_P2;PMS_P1;PMS_P2;Temp;Humidity;BMP_temperature;BMP_pressure;BME280_temperature;BME280_humidity;BME280_pressure;Samples;Min_cycle;Max_cycle;Signal;HPM_P1;HPM_P2
2021/12/14 00:01:31;;;;;;;10.98;8.85;;;;;;;18.50;39.65;102123.94;5053904;28;20045;-76
2021/12/14 00:04:04;;;;;;;9.93;8.65;;;;;;;18.50;39.55;102123.94;5054358;28;20049;-76
2021/12/14 00:06:36;;;;;;;;;;;;;;;18.50;39.49;102131.97;5054540;28;20476;-76
2021/12/14 00:09:06;;;;;;;13.75;9.43;;;;;;;18.49;39.58;102128.44;5054438;28;19920;-76
2021/12/14 00:17:00;;;;;;;11.20;8.80;;;;;;;18.49;39.56;102133.78;5054217;28;20051;-75
2021/12/14 00:19:28;;;;;;;10.60;8.88;;;;;;;18.49;39.69;102124.91;5053157;28;20053;-76
2021/12/14 00:22:03;;;;;;;9.65;8.05;;;;;;;18.49;39.74;102122.22;5052439;28;20404;-76
2021/12/14 00:24:31;;;;;;;13.18;8.88;;;;;;;18.50;39.78;102131.97;5069258;28;20045;-75
2021/12/14 00:27:05;;;;;;;10.90;9.15;;;;;;;18.49;39.80;102127.56;5054020;28;20041;-76
2021/12/14 00:29:40;;;;;;;11.40;8.77;;;;;;;18.48;39.77;102123.19;5052573;28;20048;-76
2021/12/14 00:32:18;;;;;;;10.68;7.97;;;;;;;18.48;39.82;102129.41;5051812;28;20052;-76
2021/12/14 00:34:52;;;;;;;10.77;8.15;;;;;;;18.47;39.93;102116.97;5053640;28;20045;-76
2021/12/14 00:37:33;;;;;;;11.05;7.95;;;;;;;18.48;39.94;102120.50;5054970;28;20048;-76
2021/12/14 00:40:09;;;;;;;10.07;8.68;;;;;;;18.47;39.95;102127.69;5073717;28;20045;-76
2021/12/14 00:42:38;;;;;;;12.15;8.55;;;;;;;18.47;40.00;102118.75;5105933;28;20052;-76
2021/12/14 00:45:06;;;;;;;12.52;9.25;;;;;;;18.47;39.90;102116.97;5106312;28;20057;-76
2021/12/14 00:47:34;;;;;;;11.40;8.15;;;;;;;18.46;39.88;102115.22;5073532;28;20048;-76
2021/12/14 00:50:03;;;;;;;9.45;8.40;;;;;;;18.46;39.85;102111.66;5061808;28;20053;-76
2021/12/14 00:52:31;;;;;;;11.55;9.20;;;;;;;18.46;39.78;102115.22;5053467;28;20049;-76
2021/12/14 00:54:59;;;;;;;10.15;8.90;;;;;;;18.45;39.81;102113.50;5052712;28;20055;-76
2021/12/14 00:57:26;;;;;;;10.35;8.95;;;;;;;18.44;39.92;102106.41;5053137;28;20049;-76
2021/12/14 00:59:54;;;;;;;10.20;9.07;;;;;;;18.45;39.92;102105.44;5052659;28;20051;-76
2021/12/14 01:02:23;;;;;;;9.50;8.30;;;;;;;18.44;39.76;102100.19;5034197;28;20052;-76
2021/12/14 01:04:56;;;;;;;9.88;8.88;;;;;;;18.45;39.80;102100.09;5035792;28;20049;-76
2021/12/14 01:07:29;;;;;;;11.43;8.57;;;;;;;18.45;39.85;102097.41;5052156;28;20052;-76
2021/12/14 01:09:59;;;;;;;9.20;8.25;;;;;;;18.44;39.75;102090.31;5035506;28;20504;-76
2021/12/14 01:12:39;;;;;;;10.80;8.52;;;;;;;18.44;39.81;102101.06;5053064;28;20048;-76
2021/12/14 01:15:25;;;;;;;12.38;8.45;;;;;;;18.45;39.61;102118.00;5052295;28;20432;-76
2021/12/14 01:18:16;;;;;;;11.77;8.55;;;;;;;18.43;39.46;102117.22;5051534;28;20048;-76
2021/12/14 01:20:49;;;;;;;11.77;8.50;;;;;;;18.43;39.48;102117.22;5053039;28;20056;-75
2021/12/14 01:23:29;;;;;;;11.55;8.95;;;;;;;18.42;39.62;102121.72;5051731;28;20065;-76
2021/12/14 01:26:01;;;;;;;9.57;8.45;;;;;;;18.43;39.48;102119.91;5053155;28;20044;-75
2021/12/14 01:28:30;;;;;;;9.63;7.97;;;;;;;18.43;39.49;102126.16;5051248;28;20045;-76
2021/12/14 01:31:39;;;;;;;9.30;8.25;;;;;;;18.43;39.53;102128.84;5053035;28;20048;-76
2021/12/14 01:34:21;;;;;;;10.73;8.80;;;;;;;18.44;39.51;102124.31;5052877;28;20136;-76
2021/12/14 01:36:55;;;;;;;12.20;8.98;;;;;;;18.43;39.32;102115.41;5051716;28;20053;-76
2021/12/14 01:42:03;;;;;;;9.10;8.05;;;;;;;18.43;39.49;102111.84;5052711;28;20112;-76
2021/12/14 01:44:36;;;;;;;9.20;7.60;;;;;;;18.43;39.62;102106.50;5056157;28;20408;-76
2021/12/14 01:47:20;;;;;;;10.30;7.85;;;;;;;18.43;39.55;102109.16;5055554;28;20056;-76
2021/12/14 01:50:13;;;;;;;10.23;8.75;;;;;;;18.42;39.54;102102.09;5034957;28;20065;-76
2021/12/14 01:53:00;;;;;;;9.77;8.52;;;;;;;18.42;39.38;102107.44;5041249;28;20087;-76
2021/12/14 01:55:32;;;;;;;10.57;8.25;;;;;;;18.42;39.47;102104.78;5034728;28;20050;-76
2021/12/14 01:58:02;;;;;;;9.38;8.40;;;;;;;18.41;39.53;102108.41;5034917;28;20056;-76
2021/12/14 02:00:40;;;;;;;11.48;7.63;;;;;;;18.40;39.54;102096.84;5031642;28;20433;-76
2021/12/14 02:03:11;;;;;;;9.70;8.63;;;;;;;18.41;39.64;102103.91;5018787;28;20065;-76
2021/12/14 02:05:43;;;;;;;9.77;7.68;;;;;;;18.41;39.66;102098.56;5014714;28;20049;-76
2021/12/14 02:08:32;;;;;;;8.48;7.57;;;;;;;18.40;39.57;102093.28;5014917;28;20066;-76
2021/12/14 02:11:03;;;;;;;9.27;7.72;;;;;;;18.40;39.59;102090.63;5020126;28;20045;-76
2021/12/14 02:13:34;;;;;;;8.05;6.93;;;;;;;18.40;39.71;102090.63;5034456;28;20041;-76
2021/12/14 02:16:06;;;;;;;8.55;7.55;;;;;;;18.39;39.68;102094.22;5034266;28;20050;-75
2021/12/14 02:18:58;;;;;;;10.43;8.35;;;;;;;18.40;39.85;102095.97;5034575;28;20104;-76
2021/12/14 02:21:26;;;;;;;11.75;8.02;;;;;;;18.40;39.83;102096.84;5049988;28;20068;-76
2021/12/14 02:23:56;;;;;;;9.18;7.57;;;;;;;18.39;39.67;102086.19;5034078;28;20167;-76
2021/12/14 02:26:29;;;;;;;9.70;7.90;;;;;;;18.40;39.59;102085.25;5034190;28;20060;-76
2021/12/14 02:29:02;;;;;;;;;;;;;;;18.39;39.74;102088.88;5052074;28;20056;-76
2021/12/14 02:31:35;;;;;;;8.93;7.28;;;;;;;18.39;39.57;102095.13;5034961;28;19928;-76
2021/12/14 02:34:05;;;;;;;9.38;7.65;;;;;;;18.39;39.67;102095.13;5034883;28;20046;-76
2021/12/14 02:36:39;;;;;;;10.55;7.35;;;;;;;18.38;39.75;102079.97;5035133;28;20060;-76
2021/12/14 02:39:22;;;;;;;11.40;8.57;;;;;;;18.39;39.78;102086.19;5036022;28;20516;-76
2021/12/14 02:41:54;;;;;;;8.63;7.53;;;;;;;18.38;39.75;102085.31;5034604;28;20436;-76
2021/12/14 02:44:23;;;;;;;10.05;7.72;;;;;;;18.37;39.80;102088.97;5034294;28;20053;-76
2021/12/14 02:46:59;;;;;;;10.00;7.47;;;;;;;18.36;39.61;102087.25;5050938;28;20421;-76
2021/12/14 02:49:31;;;;;;;9.52;7.15;;;;;;;18.37;39.90;102090.78;5067377;28;20057;-76
2021/12/14 02:52:05;;;;;;;10.05;7.55;;;;;;;18.37;39.60;102093.47;5055823;28;20044;-76
2021/12/14 02:54:45;;;;;;;9.35;7.85;;;;;;;18.37;39.66;102097.03;5055186;28;20396;-76
2021/12/14 02:57:18;;;;;;;10.40;7.32;;;;;;;18.38;39.62;102105.91;5054278;28;20049;-76
2021/12/14 02:59:48;;;;;;;10.63;7.20;;;;;;;18.37;39.67;102096.16;5071183;28;20393;-76
2021/12/14 03:02:21;;;;;;;8.57;6.70;;;;;;;18.37;39.56;102093.47;5053479;28;20060;-75
2021/12/14 03:04:54;;;;;;;9.45;7.43;;;;;;;18.37;39.65;102101.53;5053833;28;20067;-76
2021/12/14 03:07:25;;;;;;;9.37;7.13;;;;;;;18.37;39.40;102096.16;5054060;28;20049;-76
2021/12/14 03:10:05;;;;;;;8.85;7.43;;;;;;;18.36;39.49;102089.94;5055802;28;20051;-76
2021/12/14 03:12:39;;;;;;;9.57;6.90;;;;;;;18.37;39.47;102096.16;5053869;28;20049;-76
2021/12/14 03:15:12;;;;;;;8.55;6.88;;;;;;;18.36;39.38;102097.97;5053967;28;20053;-76
2021/12/14 03:17:43;;;;;;;8.77;6.88;;;;;;;18.36;39.53;102097.97;5055209;28;20090;-76
2021/12/14 03:20:18;;;;;;;9.00;7.07;;;;;;;18.35;39.60;102098.94;5071184;28;20060;-75
2021/12/14 03:22:48;;;;;;;8.27;6.80;;;;;;;18.36;39.47;102102.47;5053729;28;20093;-75
2021/12/14 03:25:19;;;;;;;10.15;7.35;;;;;;;18.35;39.50;102111.47;5053567;28;20056;-76
2021/12/14 03:27:50;;;;;;;8.15;6.43;;;;;;;18.35;39.39;102106.09;5054999;28;20052;-75
2021/12/14 03:30:24;;;;;;;7.88;6.88;;;;;;;18.34;39.53;102109.75;5053853;28;20063;-76
2021/12/14 03:32:58;;;;;;;7.88;6.68;;;;;;;18.35;39.59;102114.16;5053906;28;20068;-76
2021/12/14 03:36:10;;;;;;;8.35;7.20;;;;;;;18.34;39.49;102117.78;5053663;28;20049;-76
2021/12/14 03:39:05;;;;;;;8.40;7.30;;;;;;;18.34;39.48;102112.44;5067232;28;20052;-76
2021/12/14 03:41:46;;;;;;;7.75;6.65;;;;;;;18.32;39.53;102112.53;5031944;28;20053;-76
2021/12/14 03:44:26;;;;;;;7.95;6.45;;;;;;;18.32;39.58;102103.63;5053776;28;20385;-76
2021/12/14 03:47:17;;;;;;;7.07;6.18;;;;;;;18.32;39.30;102111.66;5053675;28;20063;-76
2021/12/14 03:49:58;;;;;;;8.50;6.95;;;;;;;18.32;39.40;102117.03;5053248;28;20053;-76
2021/12/14 03:52:30;;;;;;;8.80;6.82;;;;;;;18.31;39.37;102120.66;5053617;28;20515;-76
2021/12/14 03:55:11;;;;;;;7.47;6.72;;;;;;;18.32;39.27;102119.72;5053803;28;20060;-75
2021/12/14 03:57:38;;;;;;;7.32;5.93;;;;;;;18.32;39.54;102127.75;5053148;28;20051;-76
2021/12/14 04:00:13;;;;;;;7.45;6.63;;;;;;;18.32;39.34;102133.13;5053235;28;20053;-76
2021/12/14 04:02:49;;;;;;;10.27;6.60;;;;;;;18.32;39.30;102133.13;5059531;28;20121;-76
2021/12/14 04:05:23;;;;;;;7.07;5.80;;;;;;;18.31;39.19;102134.06;5051577;28;20504;-76
2021/12/14 04:07:51;;;;;;;6.68;6.00;;;;;;;18.29;39.42;102135.00;5053861;28;20053;-75
2021/12/14 04:10:23;;;;;;;7.00;6.18;;;;;;;18.31;39.50;102136.72;5052985;28;20059;-76
2021/12/14 04:12:53;;;;;;;8.02;6.25;;;;;;;18.31;39.43;102134.06;5017170;28;20045;-76
2021/12/14 04:15:21;;;;;;;7.32;6.07;;;;;;;18.30;39.40;102138.56;5050278;28;20065;-76
2021/12/14 04:17:50;;;;;;;7.22;6.10;;;;;;;18.31;39.40;102123.31;5066157;28;20057;-76
2021/12/14 04:20:34;;;;;;;8.85;6.00;;;;;;;18.30;39.55;102130.50;5033068;28;20064;-75
2021/12/14 04:23:08;;;;;;;6.88;5.80;;;;;;;18.31;39.44;102134.94;5032672;28;20045;-75
2021/12/14 04:25:36;;;;;;;8.80;5.90;;;;;;;18.30;39.41;102127.84;5033015;28;20049;-75
2021/12/14 04:28:08;;;;;;;8.55;6.15;;;;;;;18.29;39.41;102126.97;5065574;28;20053;-76
2021/12/14 04:30:36;;;;;;;8.53;5.90;;;;;;;18.31;39.43;102126.00;5049668;28;20072;-76
2021/12/14 04:33:21;;;;;;;6.82;5.68;;;;;;;18.29;39.53;102124.28;5049762;28;20453;-76
2021/12/14 04:35:50;;;;;;;7.35;5.93;;;;;;;18.29;39.31;102134.16;5032876;28;20057;-76
2021/12/14 04:38:25;;;;;;;6.20;5.10;;;;;;;18.28;39.45;102135.97;5032299;28;20060;-75
2021/12/14 04:52:20;;;;;;;11.50;5.20;;;;;;;18.27;39.34;102155.72;5085767;28;20059;-75
2021/12/14 04:54:57;;;;;;;6.13;5.18;;;;;;;18.27;39.35;102154.81;5052155;28;20041;-76
2021/12/14 04:57:30;;;;;;;7.72;5.05;;;;;;;18.27;39.42;102157.50;5052487;28;20045;-75
2021/12/14 05:00:15;;;;;;;;;;;;;;;18.27;39.35;102154.81;5052702;28;20053;-76
2021/12/14 05:02:52;;;;;;;6.88;4.90;;;;;;;18.26;39.31;102156.63;5052062;28;20380;-75
2021/12/14 05:05:39;;;;;;;5.78;5.10;;;;;;;18.26;39.48;102159.31;5051782;28;20037;-76
2021/12/14 05:11:03;;;;;;;7.88;5.45;;;;;;;18.25;39.32;102160.28;5052310;28;20053;-76
2021/12/14 05:13:37;;;;;;;5.47;4.82;;;;;;;18.26;39.38;102170.03;5052337;28;20041;-76
2021/12/14 05:16:08;;;;;;;5.20;4.70;;;;;;;18.25;39.34;102162.09;5051637;28;20362;-75
2021/12/14 05:18:36;;;;;;;6.68;4.70;;;;;;;18.24;39.45;102168.44;5052001;28;20052;-76
2021/12/14 05:21:04;;;;;;;6.07;5.05;;;;;;;18.24;39.36;102168.44;5052442;28;20044;-76
2021/12/14 05:23:34;;;;;;;6.20;5.05;;;;;;;18.24;39.36;102166.59;5052133;28;20045;-76
2021/12/14 05:26:07;;;;;;;5.70;4.70;;;;;;;18.23;39.36;102175.63;5051647;28;20045;-76
2021/12/14 05:28:35;;;;;;;7.55;5.93;;;;;;;18.22;39.29;102168.50;5051399;28;20045;-76
2021/12/14 05:31:10;;;;;;;7.45;4.78;;;;;;;18.22;39.27;102173.00;5052287;28;20392;-76
2021/12/14 05:33:43;;;;;;;5.03;4.53;;;;;;;18.22;39.15;102167.66;5051424;28;20093;-76
2021/12/14 05:36:38;;;;;;;;;;;;;;;18.22;39.12;102171.19;5052306;28;20468;-75
2021/12/14 05:39:23;;;;;;;7.05;5.30;;;;;;;18.21;39.25;102174.81;5051545;28;19921;-76
2021/12/14 05:45:18;;;;;;;6.50;4.90;;;;;;;18.20;39.16;102167.75;5051406;28;20049;-76
2021/12/14 05:47:50;;;;;;;6.30;5.70;;;;;;;18.20;38.92;102165.06;5051600;28;20052;-76
2021/12/14 05:50:34;;;;;;;6.07;5.03;;;;;;;18.19;39.17;102165.13;5052107;28;20064;-75
2021/12/14 05:53:02;;;;;;;5.47;4.90;;;;;;;18.19;39.06;102168.72;5067942;28;20477;-76
2021/12/14 05:55:33;;;;;;;6.63;4.70;;;;;;;18.20;39.19;102180.28;5051423;28;20053;-76
2021/12/14 05:58:09;;;;;;;5.32;4.47;;;;;;;18.19;39.18;102175.88;5051208;28;20049;-76
2021/12/14 06:00:40;;;;;;;5.35;4.60;;;;;;;18.19;39.17;102174.06;5053190;28;20049;-76
2021/12/14 06:03:41;;;;;;;5.47;4.22;;;;;;;18.18;39.06;102175.00;5051022;28;20056;-76
2021/12/14 06:06:41;;;;;;;6.07;4.60;;;;;;;18.18;39.11;102175.00;5049264;28;20045;-76
2021/12/14 06:09:12;;;;;;;5.22;4.55;;;;;;;18.16;39.12;102179.59;5050024;28;20064;-76
2021/12/14 06:11:52;;;;;;;5.88;4.97;;;;;;;18.15;39.19;102177.88;5021620;28;20053;-76
2021/12/14 06:14:23;;;;;;;6.30;4.68;;;;;;;18.15;39.16;102174.31;5014565;28;20136;-76
2021/12/14 06:16:55;;;;;;;6.43;5.05;;;;;;;18.16;39.01;102187.66;5029924;28;20060;-76
2021/12/14 06:19:35;;;;;;;7.03;4.25;;;;;;;18.15;39.14;102190.41;5029782;28;20509;-76
2021/12/14 06:22:16;;;;;;;4.72;3.90;;;;;;;18.14;38.99;102176.13;5046265;28;20460;-76
2021/12/14 06:24:59;;;;;;;5.85;4.57;;;;;;;18.14;39.00;102189.53;5029638;28;20543;-76
2021/12/14 06:27:31;;;;;;;6.68;4.38;;;;;;;18.14;38.99;102183.31;5029134;28;20053;-76
2021/12/14 06:30:04;;;;;;;4.80;3.95;;;;;;;18.13;38.71;102185.16;5032540;28;20061;-76
2021/12/14 06:32:38;;;;;;;5.18;4.38;;;;;;;18.13;38.87;102190.50;5033906;28;20065;-76
2021/12/14 06:35:23;;;;;;;5.43;4.60;;;;;;;18.13;38.79;102190.50;5017117;28;20092;-76
2021/12/14 06:38:23;;;;;;;6.30;4.25;;;;;;;18.13;38.92;102195.88;5049867;28;20064;-76
2021/12/14 06:40:56;;;;;;;5.32;4.38;;;;;;;18.13;38.90;102185.16;5033083;28;20057;-76
2021/12/14 06:43:23;;;;;;;6.57;4.35;;;;;;;18.13;38.92;102181.59;5034307;28;20073;-76
2021/12/14 06:45:57;;;;;;;5.15;4.20;;;;;;;18.12;38.88;102175.38;5025231;28;20470;-76
2021/12/14 06:48:49;;;;;;;5.50;4.30;;;;;;;18.13;38.85;102187.81;5034061;28;20052;-76
2021/12/14 06:51:20;;;;;;;;;;;;;;;18.13;38.75;102182.47;5057062;28;20053;-76
2021/12/14 06:54:15;;;;;;;4.80;3.55;;;;;;;18.12;38.72;102180.75;5054357;28;19924;-76
2021/12/14 06:57:03;;;;;;;5.15;3.92;;;;;;;18.11;38.80;102184.38;5053811;28;20362;-76
2021/12/14 06:59:42;;;;;;;6.93;3.85;;;;;;;18.11;38.86;102179.03;5039828;28;20469;-75
2021/12/14 07:02:11;;;;;;;4.35;3.85;;;;;;;18.12;38.71;102177.19;5056058;28;20049;-76
2021/12/14 07:04:59;;;;;;;5.28;3.83;;;;;;;18.11;38.83;102181.72;5055462;28;20053;-76
2021/12/14 07:07:32;;;;;;;5.53;4.18;;;;;;;18.10;38.91;102185.31;5052272;28;20045;-76
2021/12/14 07:10:07;;;;;;;5.93;4.32;;;;;;;18.10;39.09;102179.97;5054183;28;20045;-77
2021/12/14 07:12:37;;;;;;;4.70;3.63;;;;;;;18.09;39.04;102180.91;5054584;28;20097;-76
2021/12/14 07:15:20;;;;;;;4.65;3.65;;;;;;;18.09;38.82;102186.28;5055275;28;20041;-76
2021/12/14 07:18:01;;;;;;;5.10;4.20;;;;;;;18.09;39.05;102188.09;5055114;28;20052;-76
2021/12/14 07:20:45;;;;;;;6.90;4.07;;;;;;;18.09;38.98;102188.97;5055315;28;20388;-76
2021/12/14 07:23:21;;;;;;;5.53;4.00;;;;;;;18.08;38.89;102192.59;5053588;28;20059;-76
2021/12/14 07:25:53;;;;;;;5.40;4.03;;;;;;;18.08;39.00;102187.25;5055185;28;20045;-76
2021/12/14 07:28:20;;;;;;;4.45;4.00;;;;;;;18.08;38.83;102191.75;5053563;28;20048;-76
2021/12/14 07:30:58;;;;;;;4.40;3.92;;;;;;;18.06;39.10;102190.94;5055362;28;20056;-76
2021/12/14 07:33:31;;;;;;;4.72;4.20;;;;;;;18.08;38.85;102199.78;5054126;28;20049;-76
2021/12/14 07:36:11;;;;;;;5.57;4.50;;;;;;;18.08;38.87;102205.13;5054629;28;20053;-76
2021/12/14 07:38:40;;;;;;;6.50;4.28;;;;;;;18.07;39.02;102190.00;5054997;28;20048;-76
2021/12/14 07:41:32;;;;;;;5.70;4.00;;;;;;;18.06;38.89;102194.50;5053413;28;20053;-76
2021/12/14 07:44:14;;;;;;;5.63;3.72;;;;;;;18.05;38.84;102200.81;5054240;28;20053;-76
2021/12/14 07:46:54;;;;;;;4.93;4.10;;;;;;;18.06;38.97;102207.03;5054647;28;20052;-76
2021/12/14 07:49:34;;;;;;;4.68;3.85;;;;;;;18.04;39.03;102199.09;5054615;28;20060;-76
2021/12/14 07:52:07;;;;;;;5.47;4.03;;;;;;;18.05;39.11;102203.50;5054912;28;20049;-83
2021/12/14 07:54:34;;;;;;;;;;;;;;;18.05;39.18;102200.81;5053779;28;20048;-76
2021/12/14 07:57:25;;;;;;;6.57;3.72;;;;;;;18.05;39.33;102203.50;5054358;28;20387;-76
2021/12/14 07:59:56;;;;;;;5.80;4.38;;;;;;;18.05;39.12;102200.81;5054311;28;20424;-75
2021/12/14 08:02:38;;;;;;;9.82;4.50;;;;;;;18.04;39.21;102207.13;5054593;28;20048;-76
2021/12/14 08:05:11;;;;;;;9.15;4.25;;;;;;;18.03;39.26;102208.09;5054012;28;20400;-76
2021/12/14 08:08:07;;;;;;;6.07;4.28;;;;;;;18.03;39.48;102200.06;5053109;28;20059;-76
2021/12/14 08:10:40;;;;;;;6.45;3.95;;;;;;;18.03;39.34;102200.06;5053456;28;20045;-76
2021/12/14 08:13:13;;;;;;;7.13;3.70;;;;;;;18.04;39.15;102209.81;5054143;28;20041;-76
2021/12/14 08:15:43;;;;;;;8.25;4.65;;;;;;;18.04;39.67;102209.81;5053706;28;20381;-75
2021/12/14 08:18:25;;;;;;;5.60;4.07;;;;;;;18.02;40.52;102204.53;5053944;28;20056;-76
2021/12/14 08:21:04;;;;;;;5.43;4.15;;;;;;;18.03;40.32;102210.78;5054256;28;20049;-76
2021/12/14 08:23:33;;;;;;;7.70;4.03;;;;;;;18.02;40.62;102209.03;5053792;28;20048;-75
2021/12/14 08:26:09;;;;;;;6.80;4.03;;;;;;;18.03;39.89;102208.09;5053960;28;20045;-76
2021/12/14 08:29:00;;;;;;;7.72;4.15;;;;;;;18.02;39.87;102211.69;5052844;28;20049;-75
2021/12/14 08:31:32;;;;;;;6.53;3.83;;;;;;;18.02;39.76;102214.38;5053858;28;20052;-76
2021/12/14 08:34:06;;;;;;;5.43;3.85;;;;;;;18.02;39.67;102217.06;5053543;28;20056;-76
2021/12/14 08:36:39;;;;;;;4.85;3.60;;;;;;;18.02;39.57;102214.38;5053926;28;20041;-77
2021/12/14 08:39:08;;;;;;;5.65;3.75;;;;;;;18.02;39.58;102225.97;5053975;28;20055;-76
2021/12/14 08:41:36;;;;;;;8.75;3.83;;;;;;;18.01;39.56;102223.38;5052098;28;20056;-77
2021/12/14 08:44:10;;;;;;;4.72;4.18;;;;;;;18.00;39.36;102232.38;5053387;28;20052;-76
2021/12/14 08:46:39;;;;;;;5.15;3.90;;;;;;;17.99;39.14;102233.34;5053228;28;20049;-76
2021/12/14 08:49:07;;;;;;;5.80;4.20;;;;;;;17.97;38.81;102233.41;5053875;28;20045;-76
2021/12/14 08:51:40;;;;;;;7.75;4.35;;;;;;;17.96;38.62;102236.19;5051092;28;20045;-76
2021/12/14 08:54:16;;;;;;;9.07;5.32;;;;;;;17.96;38.42;102238.88;5053281;28;20045;-77
2021/12/14 08:56:53;;;;;;;8.30;4.63;;;;;;;17.95;38.05;102240.69;5053561;28;20499;-77
2021/12/14 08:59:21;;;;;;;9.02;5.07;;;;;;;17.94;37.86;102244.31;5051847;28;20504;-76
2021/12/14 09:01:50;;;;;;;6.75;4.55;;;;;;;17.95;38.24;102239.84;5052716;28;20507;-76
2021/12/14 09:04:31;;;;;;;9.23;5.30;;;;;;;17.94;37.76;102238.94;5052929;28;20041;-75
2021/12/14 09:11:16;;;;;;;8.48;4.90;;;;;;;17.97;37.77;102243.28;5052577;28;20044;-76
2021/12/14 09:13:43;;;;;;;6.82;4.57;;;;;;;17.97;37.78;102244.13;5052821;28;20052;-76
2021/12/14 09:16:16;;;;;;;9.65;5.20;;;;;;;17.97;37.70;102241.44;5050776;28;20037;-76
2021/12/14 09:19:03;;;;;;;10.18;5.75;;;;;;;17.97;38.34;102238.78;5053407;28;20049;-75
2021/12/14 09:21:40;;;;;;;9.68;5.00;;;;;;;17.97;38.50;102233.41;5052070;28;20075;-78
2021/12/14 09:24:12;;;;;;;8.80;5.25;;;;;;;17.97;38.37;102232.56;5051748;28;20097;-76
2021/12/14 09:26:49;;;;;;;8.13;5.18;;;;;;;17.96;38.50;102231.69;5050307;28;20041;-76
2021/12/14 09:29:19;;;;;;;7.30;5.05;;;;;;;17.96;38.51;102230.84;5052910;28;20052;-75
2021/12/14 09:31:50;;;;;;;6.47;5.40;;;;;;;17.94;38.30;102228.22;5052976;28;20052;-75
2021/12/14 09:34:20;;;;;;;9.30;5.82;;;;;;;17.94;38.14;102225.53;5051697;28;20389;-76
2021/12/14 09:36:50;;;;;;;8.80;5.57;;;;;;;17.94;38.12;102212.16;5053095;28;20052;-76
2021/12/14 09:39:29;;;;;;;7.68;5.30;;;;;;;17.94;37.91;102211.28;5053147;28;20045;-76
2021/12/14 09:42:00;;;;;;;7.25;4.97;;;;;;;17.94;37.75;102206.78;5053101;28;20060;-76
2021/12/14 09:44:31;;;;;;;5.63;4.40;;;;;;;17.95;37.69;102207.69;5052576;28;20053;-75
2021/12/14 09:47:04;;;;;;;8.80;5.50;;;;;;;17.94;37.60;102201.44;5051668;28;20067;-76
2021/12/14 09:49:32;;;;;;;6.95;4.80;;;;;;;17.95;37.83;102205.00;5052907;28;20049;-76
2021/12/14 09:52:06;;;;;;;6.90;5.15;;;;;;;17.94;38.28;102206.78;5053120;28;20048;-76
2021/12/14 09:54:34;;;;;;;8.57;5.13;;;;;;;17.94;38.31;102201.44;5052734;28;20060;-76
2021/12/14 09:57:11;;;;;;;6.88;4.88;;;;;;;17.94;38.26;102200.56;5052666;28;20041;-76
2021/12/14 09:59:40;;;;;;;6.90;5.32;;;;;;;17.93;38.10;102198.84;5051420;28;20056;-75
2021/12/14 10:02:31;;;;;;;8.75;5.18;;;;;;;17.93;38.33;102202.38;5052044;28;20053;-75
2021/12/14 10:05:18;;;;;;;7.78;5.70;;;;;;;17.93;38.16;102204.22;5054476;28;20064;-77
2021/12/14 10:07:47;;;;;;;5.90;5.03;;;;;;;17.94;38.10;102196.06;5071829;28;20060;-76
2021/12/14 10:10:18;;;;;;;7.68;5.05;;;;;;;17.95;38.36;102199.66;5055337;28;20049;-75
2021/12/14 10:12:51;;;;;;;7.40;4.55;;;;;;;17.95;38.41;102197.81;5056328;28;20052;-76
2021/12/14 10:15:35;;;;;;;8.95;5.00;;;;;;;17.96;38.56;102201.38;5056277;28;20045;-75
2021/12/14 10:18:09;;;;;;;7.07;4.53;;;;;;;17.97;38.74;102195.91;5056615;28;20530;-75
2021/12/14 10:20:53;;;;;;;6.72;4.38;;;;;;;17.98;38.95;102199.44;5055123;28;20432;-75
2021/12/14 10:23:22;;;;;;;8.35;4.75;;;;;;;17.99;39.29;102193.16;5056371;28;20044;-75
2021/12/14 10:25:51;;;;;;;6.22;4.25;;;;;;;17.99;39.38;102190.47;5056621;28;20044;-75
2021/12/14 10:28:19;;;;;;;6.22;3.90;;;;;;;17.99;39.28;102182.44;5055748;28;20045;-75
2021/12/14 10:30:55;;;;;;;7.63;4.40;;;;;;;18.00;39.07;102184.16;5056445;28;20045;-75
2021/12/14 10:33:27;;;;;;;5.97;4.03;;;;;;;18.01;39.62;102185.88;5056357;28;20472;-76
2021/12/14 10:36:01;;;;;;;7.22;4.55;;;;;;;18.01;39.58;102189.41;5055679;28;20049;-75
2021/12/14 10:38:38;;;;;;;6.28;4.10;;;;;;;18.02;39.70;102198.31;5055770;28;20401;-75
2021/12/14 10:43:56;;;;;;;6.45;4.18;;;;;;;18.02;39.81;102193.81;5056183;28;20044;-75
2021/12/14 10:46:38;;;;;;;7.53;4.25;;;;;;;18.02;39.86;102198.31;5055350;28;20044;-74
2021/12/14 10:49:06;;;;;;;8.30;4.93;;;;;;;18.01;39.80;102189.41;5037882;28;20053;-75
2021/12/14 10:51:37;;;;;;;7.25;3.90;;;;;;;18.01;39.83;102197.44;5055624;28;20388;-74
2021/12/14 10:54:10;;;;;;;4.88;3.47;;;;;;;18.03;39.77;102202.72;5055864;28;20056;-76
2021/12/14 10:57:05;;;;;;;6.38;4.03;;;;;;;18.03;39.96;102197.38;5054384;28;20049;-75
2021/12/14 10:59:36;;;;;;;5.30;3.97;;;;;;;18.03;39.65;102198.25;5055680;28;20082;-75
2021/12/14 11:02:05;;;;;;;7.07;4.22;;;;;;;18.03;39.89;102197.38;5056082;28;20049;-75
2021/12/14 11:04:41;;;;;;;4.93;3.55;;;;;;;18.01;39.85;102194.75;5054153;28;20049;-75
2021/12/14 11:07:15;;;;;;;7.03;4.47;;;;;;;18.02;39.89;102193.81;5055481;28;20045;-75
2021/12/14 11:09:52;;;;;;;6.13;3.95;;;;;;;18.03;39.94;102192.88;5055192;28;20037;-75
2021/12/14 11:12:27;;;;;;;5.47;3.85;;;;;;;18.03;39.89;102192.00;5054061;28;20037;-74
2021/12/14 11:15:00;;;;;;;5.82;4.07;;;;;;;18.02;39.78;102185.75;5054665;28;20493;-75
2021/12/14 11:20:25;;;;;;;7.05;4.32;;;;;;;18.04;39.90;102191.06;5055142;28;20060;-75
2021/12/14 11:23:00;;;;;;;5.53;4.20;;;;;;;18.04;40.05;102183.00;5054961;28;20400;-75
2021/12/14 11:25:50;;;;;;;7.18;4.80;;;;;;;18.04;40.26;102181.19;5054764;28;20788;-75
2021/12/14 11:28:41;;;;;;;8.13;4.90;;;;;;;18.05;40.18;102182.06;5054771;28;20056;-74
2021/12/14 11:31:18;;;;;;;4.72;3.83;;;;;;;18.05;40.05;102174.00;5055221;28;20052;-74
2021/12/14 11:33:49;;;;;;;5.68;4.07;;;;;;;18.04;40.04;102167.78;5054737;28;20063;-74
2021/12/14 11:36:31;;;;;;;5.72;3.80;;;;;;;18.05;40.19;102157.94;5054549;28;20045;-75
2021/12/14 11:39:04;;;;;;;5.25;4.05;;;;;;;18.06;40.15;102158.78;5055339;28;20044;-75
2021/12/14 11:41:43;;;;;;;5.32;3.83;;;;;;;18.06;40.23;102158.78;5054355;28;20381;-75
2021/12/14 11:44:31;;;;;;;4.45;3.95;;;;;;;18.06;40.06;102148.94;5054603;28;20052;-75
2021/12/14 11:50:22;;;;;;;5.20;3.78;;;;;;;18.06;40.17;102146.25;5055112;28;20480;-75
2021/12/14 11:53:14;;;;;;;5.15;3.67;;;;;;;18.07;40.16;102147.13;5053473;28;20037;-76
2021/12/14 11:55:52;;;;;;;4.78;4.00;;;;;;;18.07;40.19;102141.75;5054433;28;20049;-75
2021/12/14 11:58:20;;;;;;;5.55;3.85;;;;;;;18.08;40.32;102135.47;5054799;28;20071;-75
2021/12/14 12:01:18;;;;;;;4.65;4.10;;;;;;;18.08;40.27;102130.97;5054362;28;20048;-75
2021/12/14 12:03:46;;;;;;;6.05;3.75;;;;;;;18.08;40.16;102122.06;5054370;28;20045;-75
2021/12/14 12:06:44;;;;;;;6.43;4.35;;;;;;;18.08;40.23;102116.69;5054481;28;20045;-75
2021/12/14 12:09:30;;;;;;;4.78;4.05;;;;;;;18.08;40.33;102112.22;5054549;28;20058;-75
2021/12/14 12:12:04;;;;;;;9.23;4.28;;;;;;;18.08;40.21;102114.03;5053283;28;20064;-76
2021/12/14 12:14:34;;;;;;;5.95;3.88;;;;;;;18.11;40.31;102103.09;5053718;28;20049;-76
2021/12/14 12:17:25;;;;;;;8.95;4.60;;;;;;;18.12;40.30;102105.69;5054116;28;20052;-75
2021/12/14 12:20:17;;;;;;;5.97;4.38;;;;;;;18.11;40.29;102090.59;5052906;28;20041;-75
2021/12/14 12:23:01;;;;;;;5.68;4.32;;;;;;;18.12;40.36;102094.13;5053803;28;20112;-76
2021/12/14 12:25:36;;;;;;;7.07;4.80;;;;;;;18.13;40.27;102085.97;5053645;28;20041;-76
2021/12/14 12:28:10;;;;;;;6.10;4.20;;;;;;;18.13;40.13;102085.97;5052816;28;20049;-77
2021/12/14 12:30:48;;;;;;;4.55;3.78;;;;;;;18.13;40.08;102083.31;5053905;28;20048;-76
2021/12/14 12:33:29;;;;;;;8.07;4.40;;;;;;;18.13;40.19;102088.66;5036073;28;20057;-76
2021/12/14 12:36:10;;;;;;;5.28;4.35;;;;;;;18.15;39.92;102080.50;5052790;28;20067;-76
2021/12/14 12:39:04;;;;;;;4.13;3.40;;;;;;;18.15;40.22;102086.75;5053428;28;20053;-76
2021/12/14 12:41:57;;;;;;;5.75;4.03;;;;;;;18.15;40.63;102069.78;5052155;28;20055;-76
2021/12/14 12:44:26;;;;;;;5.53;4.00;;;;;;;18.15;40.80;102069.78;5053763;28;20057;-76